createdAt,value
2023-05-15T00:00:00.123Z, 9.9
2023-05-15T00:02:00.029Z, 6.5
2023-05-15T00:04:00.056Z, 6.5
2023-05-15T00:06:00.039Z, 7.4
2023-05-15T00:07:59.995Z, 7.4
2023-05-15T00:10:00.024Z, 6.4
2023-05-15T00:12:00.066Z, 6.1
2023-05-15T00:14:00.050Z, 6.1
2023-05-15T00:16:00.118Z, 9.4
2023-05-15T00:18:00.212Z, 9.4
2023-05-15T00:20:00.056Z, 5.7
2023-05-15T00:22:00.054Z, 5.7
2023-05-15T00:24:00.142Z, 5.7
2023-05-15T00:26:00.103Z, 7.7
2023-05-15T00:28:00.104Z, 7.7
2023-05-15T00:30:00.135Z, 6
2023-05-15T00:32:00.164Z, 6
2023-05-15T00:34:00.116Z, 6
2023-05-15T00:36:00.107Z, 8.3
2023-05-15T00:38:00.118Z, 8.3
2023-05-15T00:40:00.133Z, 8.1
2023-05-15T00:42:01.966Z, 8.1
2023-05-15T00:44:00.138Z, 8.1
2023-05-15T00:46:00.132Z, 10.1
2023-05-15T00:48:00.183Z, 10.1
2023-05-15T00:50:00.157Z, 6.9
2023-05-15T00:52:00.126Z, 6.9
2023-05-15T00:54:00.181Z, 6.9
2023-05-15T00:56:00.065Z, 8.2
2023-05-15T00:58:00.060Z, 8.2
2023-05-15T01:00:00.061Z, 7
2023-05-15T01:02:00.093Z, 7
2023-05-15T01:04:00.056Z, 7
2023-05-15T01:06:00.055Z, 6.3
2023-05-15T01:08:00.035Z, 6.3
2023-05-15T01:10:00.044Z, 9.1
2023-05-15T01:12:00.142Z, 9.1
2023-05-15T01:14:00.056Z, 9.1
2023-05-15T01:16:00.050Z, 7.1
2023-05-15T01:18:00.160Z, 7.1
2023-05-15T01:20:00.348Z, 11
2023-05-15T01:22:00.066Z, 11
2023-05-15T01:24:00.145Z, 11
2023-05-15T01:26:00.089Z, 10.2
2023-05-15T01:28:00.121Z, 10.2
2023-05-15T01:30:00.134Z, 9.9
2023-05-15T01:32:00.187Z, 9.9
2023-05-15T01:34:00.097Z, 9.9
2023-05-15T01:36:00.154Z, 10
2023-05-15T01:38:00.146Z, 10
2023-05-15T01:40:00.140Z, 7.9
2023-05-15T01:42:00.111Z, 7.9
2023-05-15T01:44:00.141Z, 7.9
2023-05-15T01:46:00.167Z, 10.8
2023-05-15T01:48:00.199Z, 10.8
2023-05-15T01:50:00.136Z, 8.6
2023-05-15T01:52:00.109Z, 8.6
2023-05-15T01:54:00.126Z, 8.6
2023-05-15T01:56:00.068Z, 10.1
2023-05-15T01:58:00.061Z, 10.1
2023-05-15T02:00:00.056Z, 7.1
2023-05-15T02:02:00.129Z, 7.1
2023-05-15T02:04:00.189Z, 7.1
2023-05-15T02:06:00.115Z, 9.2
2023-05-15T02:08:00.037Z, 9.2
2023-05-15T02:10:00.063Z, 9.5
2023-05-15T02:12:00.069Z, 9.5
2023-05-15T02:14:00.067Z, 9.5
2023-05-15T02:16:00.117Z, 6.9
2023-05-15T02:18:00.117Z, 6.9
2023-05-15T02:20:00.065Z, 7.7
2023-05-15T02:22:00.065Z, 7.7
2023-05-15T02:24:00.113Z, 7.7
2023-05-15T02:26:00.104Z, 7.3
2023-05-15T02:28:00.113Z, 7.3
2023-05-15T02:30:00.156Z, 8.7
2023-05-15T02:32:00.146Z, 8.7
2023-05-15T02:34:00.096Z, 8.7
2023-05-15T02:36:00.133Z, 9.3
2023-05-15T02:38:00.126Z, 9.3
2023-05-15T02:40:00.200Z, 8.4
2023-05-15T02:42:00.139Z, 8.4
2023-05-15T02:44:00.099Z, 8.4
2023-05-15T02:46:00.196Z, 8.8
2023-05-15T02:48:00.131Z, 8.8
2023-05-15T02:50:00.115Z, 6.9
2023-05-15T02:52:00.135Z, 6.9
2023-05-15T02:54:00.120Z, 6.9
2023-05-15T02:56:00.063Z, 6.4
2023-05-15T02:58:00.069Z, 6.4
2023-05-15T03:00:00.053Z, 8
2023-05-15T03:02:00.061Z, 8
2023-05-15T03:04:00.080Z, 8
2023-05-15T03:06:00.060Z, 6.1
2023-05-15T03:08:00.065Z, 6.1
2023-05-15T03:10:00.076Z, 9.9
2023-05-15T03:12:00.052Z, 9.9
2023-05-15T03:14:00.065Z, 9.9
2023-05-15T03:16:00.121Z, 6.8
2023-05-15T03:18:00.110Z, 6.8
2023-05-15T03:20:00.058Z, 7.3
2023-05-15T03:22:00.034Z, 7.3
2023-05-15T03:24:00.124Z, 7.3
2023-05-15T03:26:00.166Z, 9.7
2023-05-15T03:28:00.121Z, 9.7
2023-05-15T03:30:00.145Z, 10
2023-05-15T03:32:00.125Z, 10
2023-05-15T03:34:00.130Z, 9.7
2023-05-15T03:36:00.173Z, 9.4
2023-05-15T03:38:00.151Z, 9.4
2023-05-15T03:40:00.164Z, 10.5
2023-05-15T03:42:00.112Z, 10.5
2023-05-15T03:44:00.178Z, 9.7
2023-05-15T03:46:00.138Z, 9.7
2023-05-15T03:48:00.155Z, 9.7
2023-05-15T03:50:00.162Z, 8.3
2023-05-15T03:52:00.122Z, 8.3
2023-05-15T03:54:00.069Z, 9.8
2023-05-15T03:56:00.063Z, 9.8
2023-05-15T03:58:00.060Z, 9.8
2023-05-15T04:00:00.083Z, 11.8
2023-05-15T04:02:04.854Z, 11.8
2023-05-15T04:04:00.055Z, 8.6
2023-05-15T04:06:00.059Z, 8.6
2023-05-15T04:08:00.066Z, 8.6
2023-05-15T04:10:00.053Z, 7.6
2023-05-15T04:12:00.049Z, 7.6
2023-05-15T04:14:00.052Z, 8.5
2023-05-15T04:16:00.087Z, 8.5
2023-05-15T04:18:00.178Z, 8.5
2023-05-15T04:20:00.055Z, 9.3
2023-05-15T04:22:00.026Z, 9.3
2023-05-15T04:24:00.128Z, 9.5
2023-05-15T04:26:00.108Z, 9.5
2023-05-15T04:28:00.138Z, 9.5
2023-05-15T04:30:00.171Z, 8.2
2023-05-15T04:32:00.152Z, 8.2
2023-05-15T04:34:00.147Z, 9.9
2023-05-15T04:36:00.159Z, 9.9
2023-05-15T04:38:00.113Z, 9.9
2023-05-15T04:40:00.209Z, 9
2023-05-15T04:42:00.171Z, 9
2023-05-15T04:44:00.117Z, 9
2023-05-15T04:46:00.222Z, 9
2023-05-15T04:48:00.178Z, 9
2023-05-15T04:50:00.200Z, 8.4
2023-05-15T04:52:00.137Z, 8.4
2023-05-15T04:54:00.067Z, 10.4
2023-05-15T04:56:00.043Z, 10.4
2023-05-15T04:58:00.056Z, 10.4
2023-05-15T05:00:00.056Z, 8.4
2023-05-15T05:02:00.085Z, 8.4
2023-05-15T05:04:00.133Z, 8.3
2023-05-15T05:06:00.061Z, 8.3
2023-05-15T05:08:00.053Z, 8.3
2023-05-15T05:10:00.055Z, 11.9
2023-05-15T05:12:00.057Z, 11.9
2023-05-15T05:14:00.059Z, 9.5
2023-05-15T05:16:00.118Z, 9.5
2023-05-15T05:18:00.265Z, 9.5
2023-05-15T05:20:00.059Z, 12
2023-05-15T05:22:00.046Z, 12
2023-05-15T05:24:00.127Z, 22.6
2023-05-15T05:26:00.123Z, 22.6
2023-05-15T05:28:00.150Z, 22.6
2023-05-15T05:30:00.186Z, 26.1
2023-05-15T05:32:00.496Z, 26.1
2023-05-15T05:34:00.142Z, 26.3
2023-05-15T05:36:00.136Z, 26.3
2023-05-15T05:38:00.168Z, 26.3
2023-05-15T05:40:00.144Z, 22.6
2023-05-15T05:42:00.158Z, 22.6
2023-05-15T05:44:00.099Z, 23.4
2023-05-15T05:46:00.105Z, 23.4
2023-05-15T05:48:00.303Z, 23.4
2023-05-15T05:50:00.141Z, 38.9
2023-05-15T05:52:00.144Z, 38.9
2023-05-15T05:54:00.117Z, 67.6
2023-05-15T05:56:00.061Z, 67.6
2023-05-15T05:58:00.050Z, 67.6
2023-05-15T06:00:00.036Z, 69.4
2023-05-15T06:02:00.081Z, 69.4
2023-05-15T06:04:00.136Z, 76.7
2023-05-15T06:06:00.124Z, 76.7
2023-05-15T06:08:00.053Z, 76.7
2023-05-15T06:10:00.060Z, 80.9
2023-05-15T06:12:00.058Z, 80.9
2023-05-15T06:14:00.095Z, 83
2023-05-15T06:16:00.060Z, 83
2023-05-15T06:18:00.135Z, 83
2023-05-15T06:20:00.086Z, 78.3
2023-05-15T06:22:00.048Z, 78.3
2023-05-15T06:24:00.131Z, 86.5
2023-05-15T06:26:00.114Z, 86.5
2023-05-15T06:28:00.143Z, 86.5
2023-05-15T06:30:00.146Z, 84.9
2023-05-15T06:32:00.170Z, 84.9
2023-05-15T06:34:00.131Z, 79.4
2023-05-15T06:36:00.151Z, 79.4
2023-05-15T06:38:00.167Z, 79.4
2023-05-15T06:40:00.203Z, 81.8
2023-05-15T06:42:00.147Z, 81.8
2023-05-15T06:44:00.113Z, 79
2023-05-15T06:46:00.316Z, 79
2023-05-15T06:48:01.877Z, 79
2023-05-15T06:50:00.135Z, 79.8
2023-05-15T06:52:00.102Z, 79.8
2023-05-15T06:54:00.146Z, 79.6
2023-05-15T06:56:00.061Z, 79.6
2023-05-15T06:58:00.068Z, 79.6
2023-05-15T07:00:00.155Z, 70.5
2023-05-15T07:02:00.177Z, 70.5
2023-05-15T07:04:00.063Z, 68.9
2023-05-15T07:06:00.093Z, 68.9
2023-05-15T07:08:00.075Z, 73.1
2023-05-15T07:10:00.068Z, 74.6
2023-05-15T07:12:00.079Z, 74.6
2023-05-15T07:14:00.072Z, 68.1
2023-05-15T07:16:00.059Z, 68.1
2023-05-15T07:18:00.213Z, 68.2
2023-05-15T07:20:00.053Z, 68.2
2023-05-15T07:22:02.471Z, 68.2
2023-05-15T07:24:00.107Z, 67.9
2023-05-15T07:26:00.104Z, 67.9
2023-05-15T07:28:00.104Z, 68.6
2023-05-15T07:30:00.185Z, 68.6
2023-05-15T07:32:00.257Z, 68.6
2023-05-15T07:34:00.114Z, 67.4
2023-05-15T07:36:00.134Z, 67.4
2023-05-15T07:38:00.194Z, 76.7
2023-05-15T07:40:00.253Z, 76.7
2023-05-15T07:42:00.148Z, 76.7
2023-05-15T07:44:00.130Z, 66.8
2023-05-15T07:46:00.263Z, 66.8
2023-05-15T07:48:00.187Z, 68.1
2023-05-15T07:50:00.173Z, 68.1
2023-05-15T07:52:00.145Z, 68.1
2023-05-15T07:54:00.061Z, 66.4
2023-05-15T07:56:00.051Z, 66.4
2023-05-15T07:58:00.048Z, 71
2023-05-15T08:00:00.043Z, 71
2023-05-15T08:02:00.128Z, 71
2023-05-15T08:04:00.068Z, 67.2
2023-05-15T08:06:00.015Z, 67.2
2023-05-15T08:07:59.952Z, 63.1
2023-05-15T08:09:59.980Z, 63.1
2023-05-15T08:12:00.054Z, 63.1
2023-05-15T08:14:00.102Z, 61.5
2023-05-15T08:16:00.085Z, 61.5
2023-05-15T08:18:00.178Z, 62.6
2023-05-15T08:20:00.064Z, 62.6
2023-05-15T08:22:00.072Z, 62.6
2023-05-15T08:24:00.131Z, 55
2023-05-15T08:26:00.117Z, 55
2023-05-15T08:28:00.077Z, 52.2
2023-05-15T08:30:00.167Z, 52.2
2023-05-15T08:32:00.085Z, 52.2
2023-05-15T08:34:00.167Z, 57.5
2023-05-15T08:36:00.169Z, 57.5
2023-05-15T08:38:00.122Z, 61.4
2023-05-15T08:40:00.131Z, 61.4
2023-05-15T08:42:00.109Z, 61.4
2023-05-15T08:44:00.133Z, 58.9
2023-05-15T08:46:00.136Z, 58.9
2023-05-15T08:48:00.221Z, 58.2
2023-05-15T08:50:00.140Z, 58.2
2023-05-15T08:52:00.123Z, 58.2
2023-05-15T08:54:00.070Z, 62.4
2023-05-15T08:56:00.093Z, 62.4
2023-05-15T08:58:00.070Z, 68.3
2023-05-15T09:00:00.086Z, 68.3
2023-05-15T09:02:00.102Z, 68.3
2023-05-15T09:04:00.106Z, 66
2023-05-15T09:06:00.064Z, 66
2023-05-15T09:08:00.046Z, 61.8
2023-05-15T09:10:00.039Z, 61.8
2023-05-15T09:12:00.081Z, 61.8
2023-05-15T09:14:00.065Z, 63.4
2023-05-15T09:16:00.056Z, 63.4
2023-05-15T09:18:00.116Z, 58.2
2023-05-15T09:20:00.039Z, 58.2
2023-05-15T09:22:00.040Z, 58.2
2023-05-15T09:24:00.164Z, 52.8
2023-05-15T09:26:00.114Z, 52.8
2023-05-15T09:28:00.129Z, 54
2023-05-15T09:30:00.176Z, 54
2023-05-15T09:32:00.178Z, 54
2023-05-15T09:34:00.105Z, 53
2023-05-15T09:36:00.137Z, 53
2023-05-15T09:38:00.124Z, 55.9
2023-05-15T09:40:00.186Z, 55.9
2023-05-15T09:42:00.115Z, 55.9
2023-05-15T09:44:00.125Z, 53.6
2023-05-15T09:46:00.184Z, 53.6
2023-05-15T09:48:00.492Z, 54.1
2023-05-15T09:50:00.137Z, 54.1
2023-05-15T09:52:00.127Z, 54.1
2023-05-15T09:54:00.093Z, 47.6
2023-05-15T09:56:00.058Z, 47.6
2023-05-15T09:58:00.083Z, 46
2023-05-15T10:00:00.088Z, 46
2023-05-15T10:02:00.163Z, 46
2023-05-15T10:04:00.077Z, 51
2023-05-15T10:06:00.189Z, 51
2023-05-15T10:08:00.035Z, 49.9
2023-05-15T10:10:00.070Z, 49.9
2023-05-15T10:12:00.092Z, 49.9
2023-05-15T10:14:00.075Z, 51.5
2023-05-15T10:16:00.093Z, 51.5
2023-05-15T10:18:00.185Z, 49.8
2023-05-15T10:20:00.069Z, 49.8
2023-05-15T10:22:00.066Z, 49.8
2023-05-15T10:24:00.110Z, 46.8
2023-05-15T10:26:00.094Z, 46.8
2023-05-15T10:28:00.084Z, 43.2
2023-05-15T10:30:00.149Z, 43.2
2023-05-15T10:32:00.096Z, 43.2
2023-05-15T10:34:00.137Z, 43.6
2023-05-15T10:36:00.156Z, 43.6
2023-05-15T10:38:00.134Z, 43.4
2023-05-15T10:40:00.117Z, 43.4
2023-05-15T10:42:00.151Z, 43.4
2023-05-15T10:44:00.103Z, 42.3
2023-05-15T10:46:00.117Z, 42.3
2023-05-15T10:48:00.179Z, 42.7
2023-05-15T10:50:00.160Z, 42.7
2023-05-15T10:52:00.102Z, 42.7
2023-05-15T10:54:00.128Z, 47.9
2023-05-15T10:56:00.216Z, 47.9
2023-05-15T10:58:00.087Z, 50.2
2023-05-15T11:00:00.081Z, 50.2
2023-05-15T11:02:00.056Z, 50.2
2023-05-15T11:04:00.111Z, 53.5
2023-05-15T11:06:00.074Z, 53.5
2023-05-15T11:08:00.043Z, 45.4
2023-05-15T11:10:00.060Z, 45.4
2023-05-15T11:12:00.081Z, 45.4
2023-05-15T11:14:00.066Z, 47.7
2023-05-15T11:16:00.061Z, 47.7
2023-05-15T11:18:00.133Z, 54
2023-05-15T11:20:00.063Z, 54
2023-05-15T11:22:00.054Z, 54
2023-05-15T11:24:00.141Z, 46
2023-05-15T11:26:00.113Z, 46
2023-05-15T11:28:00.114Z, 55.1
2023-05-15T11:30:00.185Z, 55.1
2023-05-15T11:32:00.125Z, 55.1
2023-05-15T11:34:00.107Z, 47
2023-05-15T11:36:00.174Z, 47
2023-05-15T11:38:00.147Z, 49.1
2023-05-15T11:40:00.167Z, 49.1
2023-05-15T11:42:01.024Z, 49.1
2023-05-15T11:44:00.131Z, 47.3
2023-05-15T11:46:00.207Z, 47.3
2023-05-15T11:48:00.235Z, 45.1
2023-05-15T11:50:00.124Z, 45.1
2023-05-15T11:52:00.126Z, 45.5
2023-05-15T11:54:00.104Z, 46
2023-05-15T11:56:00.068Z, 46
2023-05-15T11:58:00.094Z, 43.4
2023-05-15T12:00:00.057Z, 43.4
2023-05-15T12:02:00.095Z, 40.8
2023-05-15T12:04:00.392Z, 40.8
2023-05-15T12:06:00.503Z, 40.8
2023-05-15T12:08:00.048Z, 40.1
2023-05-15T12:10:00.078Z, 40.1
2023-05-15T12:12:00.067Z, 39
2023-05-15T12:14:00.055Z, 39
2023-05-15T12:16:00.117Z, 39
2023-05-15T12:18:00.232Z, 40.8
2023-05-15T12:20:00.079Z, 40.8
2023-05-15T12:22:00.058Z, 33.2
2023-05-15T12:24:07.571Z, 33.2
2023-05-15T12:26:00.108Z, 33.2
2023-05-15T12:28:00.146Z, 35.7
2023-05-15T12:30:00.166Z, 35.7
2023-05-15T12:32:00.213Z, 35.5
2023-05-15T12:34:00.131Z, 35.5
2023-05-15T12:36:01.854Z, 35.5
2023-05-15T12:38:00.139Z, 32
2023-05-15T12:40:00.190Z, 32
2023-05-15T12:42:00.163Z, 36.1
2023-05-15T12:44:00.139Z, 36.1
2023-05-15T12:46:00.138Z, 36.1
2023-05-15T12:48:00.150Z, 29.8
2023-05-15T12:50:00.164Z, 29.8
2023-05-15T12:52:00.104Z, 23.5
2023-05-15T12:54:00.084Z, 23.5
2023-05-15T12:56:00.074Z, 23.5
2023-05-15T12:58:00.078Z, 25.3
2023-05-15T13:00:00.079Z, 25.3
2023-05-15T13:02:00.056Z, 28.4
2023-05-15T13:04:00.271Z, 28.4
2023-05-15T13:06:00.055Z, 28.4
2023-05-15T13:08:00.108Z, 27.3
2023-05-15T13:10:00.057Z, 27.3
2023-05-15T13:12:00.055Z, 23.1
2023-05-15T13:14:00.053Z, 23.1
2023-05-15T13:16:00.126Z, 23.1
2023-05-15T13:18:00.102Z, 25.5
2023-05-15T13:20:00.057Z, 25.5
2023-05-15T13:22:00.041Z, 22.6
2023-05-15T13:24:00.137Z, 22.6
2023-05-15T13:26:00.128Z, 22.6
2023-05-15T13:28:00.107Z, 22.6
2023-05-15T13:30:00.138Z, 22.6
2023-05-15T13:32:00.126Z, 20.1
2023-05-15T13:34:00.112Z, 20.1
2023-05-15T13:36:00.134Z, 20.1
2023-05-15T13:38:00.132Z, 21.8
2023-05-15T13:40:00.171Z, 21.8
2023-05-15T13:42:00.118Z, 18.8
2023-05-15T13:44:00.185Z, 18.8
2023-05-15T13:46:00.144Z, 18.8
2023-05-15T13:48:00.235Z, 17.3
2023-05-15T13:50:00.175Z, 17.3
2023-05-15T13:52:00.141Z, 20.1
2023-05-15T13:54:00.112Z, 20.1
2023-05-15T13:56:00.127Z, 20.1
2023-05-15T13:58:00.071Z, 14.2
2023-05-15T14:00:00.183Z, 14.2
2023-05-15T14:02:00.070Z, 14.1
2023-05-15T14:04:00.102Z, 14.1
2023-05-15T14:06:00.057Z, 14.1
2023-05-15T14:08:00.066Z, 15
2023-05-15T14:10:00.058Z, 15
2023-05-15T14:12:00.078Z, 13.8
2023-05-15T14:14:00.056Z, 13.8
2023-05-15T14:16:00.064Z, 13.8
2023-05-15T14:18:00.089Z, 14.8
2023-05-15T14:20:00.056Z, 14.8
2023-05-15T14:22:00.055Z, 14.5
2023-05-15T14:24:00.121Z, 14.5
2023-05-15T14:26:00.154Z, 14.5
2023-05-15T14:28:00.108Z, 16.1
2023-05-15T14:30:00.142Z, 16.1
2023-05-15T14:32:00.218Z, 13
2023-05-15T14:34:00.123Z, 13
2023-05-15T14:36:00.148Z, 13
2023-05-15T14:38:00.149Z, 14.5
2023-05-15T14:40:00.167Z, 14.5
2023-05-15T14:42:00.136Z, 19.5
2023-05-15T14:44:00.135Z, 19.5
2023-05-15T14:46:00.166Z, 19.5
2023-05-15T14:48:00.185Z, 18.8
2023-05-15T14:50:00.121Z, 18.8
2023-05-15T14:52:00.100Z, 19.7
2023-05-15T14:54:00.062Z, 19.7
2023-05-15T14:56:00.069Z, 19.7
2023-05-15T14:58:00.046Z, 16.2
2023-05-15T15:00:00.055Z, 16.2
2023-05-15T15:02:00.238Z, 16.8
2023-05-15T15:04:00.288Z, 16.8
2023-05-15T15:06:00.044Z, 16.8
2023-05-15T15:08:00.032Z, 18
2023-05-15T15:10:00.053Z, 18
2023-05-15T15:12:00.059Z, 16.5
2023-05-15T15:14:00.057Z, 16.5
2023-05-15T15:16:00.096Z, 16.5
2023-05-15T15:18:00.075Z, 19.8
2023-05-15T15:20:00.058Z, 19.8
2023-05-15T15:22:00.095Z, 19.3
2023-05-15T15:24:00.132Z, 19.3
2023-05-15T15:26:00.116Z, 19.3
2023-05-15T15:28:00.128Z, 17.7
2023-05-15T15:30:00.158Z, 17.7
2023-05-15T15:32:00.195Z, 18.4
2023-05-15T15:34:00.350Z, 18.4
2023-05-15T15:36:00.112Z, 18.4
2023-05-15T15:38:00.126Z, 12.5
2023-05-15T15:40:00.203Z, 12.5
2023-05-15T15:42:00.117Z, 11.4
2023-05-15T15:44:00.144Z, 11.4
2023-05-15T15:46:00.169Z, 11.4
2023-05-15T15:48:00.268Z, 10.9
2023-05-15T15:50:00.163Z, 10.9
2023-05-15T15:52:00.140Z, 8.8
2023-05-15T15:54:00.093Z, 8.8
2023-05-15T15:56:00.049Z, 8.8
2023-05-15T15:58:00.045Z, 9
2023-05-15T16:00:00.049Z, 9
2023-05-15T16:02:00.029Z, 8.1
2023-05-15T16:04:00.082Z, 8.1
2023-05-15T16:06:00.408Z, 8.1
2023-05-15T16:07:59.974Z, 10.2
2023-05-15T16:10:11.941Z, 10.2
2023-05-15T16:12:00.019Z, 9.5
2023-05-15T16:14:00.014Z, 9.5
2023-05-15T16:15:59.998Z, 9.5
2023-05-15T16:18:00.076Z, 10.2
2023-05-15T16:20:00.005Z, 10.2
2023-05-15T16:21:59.982Z, 8
2023-05-15T16:24:00.124Z, 8
2023-05-15T16:26:00.135Z, 8
2023-05-15T16:28:00.117Z, 8.2
2023-05-15T16:30:00.314Z, 8.2
2023-05-15T16:32:00.193Z, 8.8
2023-05-15T16:34:02.799Z, 8.8
2023-05-15T16:36:00.136Z, 8.8
2023-05-15T16:38:00.162Z, 8.9
2023-05-15T16:40:00.295Z, 8.9
2023-05-15T16:42:00.140Z, 7.9
2023-05-15T16:44:00.134Z, 7.9
2023-05-15T16:46:00.174Z, 7.9
2023-05-15T16:48:00.289Z, 8.5
2023-05-15T16:50:00.159Z, 8.5
2023-05-15T16:52:00.164Z, 8.6
2023-05-15T16:54:00.097Z, 8.6
2023-05-15T16:56:00.079Z, 8.6
2023-05-15T16:58:00.092Z, 6.8
2023-05-15T17:00:00.087Z, 6.8
2023-05-15T17:02:00.061Z, 7.6
2023-05-15T17:04:00.071Z, 7.6
2023-05-15T17:06:00.016Z, 7.6
2023-05-15T17:07:59.989Z, 8
2023-05-15T17:10:00.051Z, 8
2023-05-15T17:12:00.053Z, 8.2
2023-05-15T17:14:00.066Z, 8.2
2023-05-15T17:16:00.073Z, 8.2
2023-05-15T17:18:00.172Z, 9.2
2023-05-15T17:20:01.117Z, 9.2
2023-05-15T17:22:00.069Z, 7.3
2023-05-15T17:24:00.112Z, 7.3
2023-05-15T17:26:00.097Z, 7.3
2023-05-15T17:28:00.112Z, 8.2
2023-05-15T17:30:00.182Z, 8.2
2023-05-15T17:32:00.135Z, 8.1
2023-05-15T17:34:00.141Z, 8.1
2023-05-15T17:36:00.144Z, 8.1
2023-05-15T17:38:00.125Z, 8.7
2023-05-15T17:40:00.120Z, 8.7
2023-05-15T17:42:00.142Z, 8.6
2023-05-15T17:44:00.143Z, 8.6
2023-05-15T17:46:00.140Z, 8.6
2023-05-15T17:48:00.288Z, 11.6
2023-05-15T17:50:00.151Z, 11.6
2023-05-15T17:52:00.136Z, 8.9
2023-05-15T17:54:00.121Z, 8.9
2023-05-15T17:56:00.068Z, 9
2023-05-15T17:58:00.057Z, 9.5
2023-05-15T18:00:00.072Z, 9.5
2023-05-15T18:02:00.095Z, 11
2023-05-15T18:04:00.115Z, 11
2023-05-15T18:06:00.073Z, 13.7
2023-05-15T18:08:00.084Z, 14.6
2023-05-15T18:10:00.067Z, 14.6
2023-05-15T18:12:00.044Z, 20.1
2023-05-15T18:14:00.029Z, 20.1
2023-05-15T18:16:00.071Z, 21.1
2023-05-15T18:18:00.055Z, 21.1
2023-05-15T18:20:00.008Z, 21.1
2023-05-15T18:21:59.981Z, 21.2
2023-05-15T18:24:00.096Z, 21.2
2023-05-15T18:26:00.140Z, 21.9
2023-05-15T18:28:00.108Z, 21.9
2023-05-15T18:30:00.145Z, 21.9
2023-05-15T18:32:00.183Z, 21.6
2023-05-15T18:34:00.187Z, 21.6
2023-05-15T18:36:00.125Z, 23.4
2023-05-15T18:38:00.144Z, 23.4
2023-05-15T18:40:00.148Z, 23.4
2023-05-15T18:42:00.168Z, 21.5
2023-05-15T18:44:00.112Z, 21.5
2023-05-15T18:46:00.135Z, 20
2023-05-15T18:48:00.155Z, 20
2023-05-15T18:50:00.156Z, 20
2023-05-15T18:52:00.159Z, 21
2023-05-15T18:54:00.085Z, 21
2023-05-15T18:56:00.081Z, 22.5
2023-05-15T18:58:00.081Z, 22.5
2023-05-15T19:00:00.095Z, 22.5
2023-05-15T19:02:00.163Z, 21.1
2023-05-15T19:04:00.052Z, 21.1
2023-05-15T19:06:00.055Z, 20.5
2023-05-15T19:08:00.028Z, 20.5
2023-05-15T19:10:00.053Z, 20.5
2023-05-15T19:12:00.084Z, 24
2023-05-15T19:14:00.089Z, 24
2023-05-15T19:16:00.053Z, 23.7
2023-05-15T19:18:00.148Z, 23.7
2023-05-15T19:20:00.068Z, 23.7
2023-05-15T19:22:00.060Z, 23.2
2023-05-15T19:24:00.113Z, 23.2
2023-05-15T19:26:00.097Z, 19.7
2023-05-15T19:28:00.114Z, 19.7
2023-05-15T19:30:00.208Z, 19.7
2023-05-15T19:32:00.130Z, 21.7
2023-05-15T19:34:00.281Z, 21.7
2023-05-15T19:36:00.142Z, 22.9
2023-05-15T19:38:00.138Z, 22.9
2023-05-15T19:40:00.132Z, 22.9
2023-05-15T19:42:00.139Z, 20.3
2023-05-15T19:44:00.097Z, 20.3
2023-05-15T19:46:00.185Z, 17.5
2023-05-15T19:48:00.232Z, 17.5
2023-05-15T19:50:00.116Z, 17.5
2023-05-15T19:52:00.118Z, 20.2
2023-05-15T19:54:00.069Z, 20.2
2023-05-15T19:56:00.090Z, 19.4
2023-05-15T19:58:00.058Z, 19.4
2023-05-15T20:00:00.171Z, 19.4
2023-05-15T20:02:00.231Z, 22.7
2023-05-15T20:04:00.255Z, 22.7
2023-05-15T20:06:00.061Z, 21.8
2023-05-15T20:08:00.042Z, 21.8
2023-05-15T20:10:00.045Z, 21.8
2023-05-15T20:12:00.059Z, 25.3
2023-05-15T20:14:00.045Z, 25.3
2023-05-15T20:16:00.184Z, 25.4
2023-05-15T20:18:00.115Z, 25.4
2023-05-15T20:20:00.080Z, 25.4
2023-05-15T20:22:00.057Z, 24.8
2023-05-15T20:24:00.163Z, 24.8
2023-05-15T20:26:00.124Z, 28.1
2023-05-15T20:28:00.130Z, 28.1
2023-05-15T20:30:00.192Z, 28.1
2023-05-15T20:32:00.166Z, 28.7
2023-05-15T20:34:00.115Z, 28.7
2023-05-15T20:36:00.383Z, 29
2023-05-15T20:38:00.199Z, 29
2023-05-15T20:40:00.275Z, 29
2023-05-15T20:42:00.147Z, 31.6
2023-05-15T20:44:00.149Z, 31.6
2023-05-15T20:46:00.198Z, 28.6
2023-05-15T20:48:00.168Z, 28.6
2023-05-15T20:50:00.159Z, 28.6
2023-05-15T20:52:00.122Z, 34
2023-05-15T20:54:00.154Z, 34
2023-05-15T20:56:00.052Z, 31.9
2023-05-15T20:58:00.083Z, 31.9
2023-05-15T21:00:00.087Z, 31.9
2023-05-15T21:02:00.059Z, 32.8
2023-05-15T21:04:00.322Z, 32.8
2023-05-15T21:06:00.062Z, 33
2023-05-15T21:08:00.064Z, 33
2023-05-15T21:10:00.073Z, 33
2023-05-15T21:12:00.137Z, 35.1
2023-05-15T21:14:00.064Z, 35.1
2023-05-15T21:16:00.067Z, 35.5
2023-05-15T21:18:00.095Z, 35.5
2023-05-15T21:20:00.088Z, 35.5
2023-05-15T21:22:00.027Z, 33.2
2023-05-15T21:24:00.126Z, 33.2
2023-05-15T21:26:00.134Z, 35.5
2023-05-15T21:28:00.130Z, 35.5
2023-05-15T21:30:00.169Z, 35.5
2023-05-15T21:32:00.138Z, 38.2
2023-05-15T21:34:00.125Z, 38.2
2023-05-15T21:36:00.159Z, 38.3
2023-05-15T21:38:00.165Z, 38.3
2023-05-15T21:40:00.192Z, 38.3
2023-05-15T21:42:00.159Z, 38.3
2023-05-15T21:44:00.176Z, 38.3
2023-05-15T21:46:00.152Z, 43.2
2023-05-15T21:48:00.231Z, 43.2
2023-05-15T21:50:00.129Z, 43.2
2023-05-15T21:52:00.143Z, 44.8
2023-05-15T21:54:00.096Z, 44.8
2023-05-15T21:56:00.100Z, 51.1
2023-05-15T21:58:00.111Z, 51.1
2023-05-15T22:00:00.186Z, 51.1
2023-05-15T22:02:00.168Z, 55.4
2023-05-15T22:04:00.078Z, 55.4
2023-05-15T22:06:00.053Z, 65.7
2023-05-15T22:08:00.037Z, 65.7
2023-05-15T22:10:00.055Z, 65.7
2023-05-15T22:12:00.050Z, 61.7
2023-05-15T22:14:00.094Z, 61.7
2023-05-15T22:16:00.259Z, 66.7
2023-05-15T22:18:00.140Z, 66.7
2023-05-15T22:20:00.110Z, 69.1
2023-05-15T22:22:00.112Z, 71.5
2023-05-15T22:24:00.118Z, 71.5
2023-05-15T22:26:00.088Z, 70.4
2023-05-15T22:28:00.106Z, 70.4
2023-05-15T22:30:00.139Z, 75.2
2023-05-15T22:32:00.142Z, 75.2
2023-05-15T22:34:00.100Z, 75.2
2023-05-15T22:36:00.115Z, 72.5
2023-05-15T22:38:00.104Z, 72.5
2023-05-15T22:40:00.128Z, 77.2
2023-05-15T22:42:00.134Z, 77.2
2023-05-15T22:44:00.088Z, 77.2
2023-05-15T22:46:00.150Z, 77.5
2023-05-15T22:48:00.208Z, 77.5
2023-05-15T22:50:00.124Z, 73.5
2023-05-15T22:52:00.127Z, 73.5
2023-05-15T22:54:00.099Z, 73.5
2023-05-15T22:56:00.094Z, 79.3
2023-05-15T22:58:00.055Z, 79.3
2023-05-15T23:00:00.108Z, 77.5
2023-05-15T23:02:00.087Z, 77.5
2023-05-15T23:04:00.146Z, 77.5
2023-05-15T23:06:00.114Z, 79.8
2023-05-15T23:08:00.050Z, 79.8
2023-05-15T23:10:00.076Z, 73.9
2023-05-15T23:12:00.070Z, 73.9
2023-05-15T23:14:00.059Z, 73.9
2023-05-15T23:16:00.193Z, 76.2
2023-05-15T23:18:00.205Z, 76.2
2023-05-15T23:20:00.108Z, 77.1
2023-05-15T23:22:00.048Z, 77.1
2023-05-15T23:24:00.155Z, 77.1
2023-05-15T23:26:00.112Z, 75.6
2023-05-15T23:28:00.110Z, 75.6
2023-05-15T23:30:00.161Z, 72.4
2023-05-15T23:32:00.149Z, 72.4
2023-05-15T23:34:00.131Z, 72.4
2023-05-15T23:36:00.153Z, 67.3
2023-05-15T23:38:00.135Z, 67.3
2023-05-15T23:40:00.139Z, 61.2
2023-05-15T23:42:00.225Z, 61.2
2023-05-15T23:44:00.135Z, 61.2
2023-05-15T23:46:00.137Z, 51.8
2023-05-15T23:48:00.287Z, 51.8
2023-05-15T23:50:00.173Z, 56.8
2023-05-15T23:52:00.114Z, 56.8
2023-05-15T23:54:00.119Z, 56.8
2023-05-15T23:56:00.096Z, 52.9
2023-05-15T23:58:00.129Z, 52.9
